Otoe, Nebraska
Current Conditions -  °F | °C
As of 5:35 AM on Saturday 20 Dec 2014 (Local Time) from KAFK Reporting Station
Haze Haze  
Wind Chill: 26°   Ceiling: 500
Heat Index: 32°   Visibility: 4mi
Dew Point: 32°   Wind: 7mph
Humidity: 100%   Direction: 150°SSE
Pressure: 30.11"   Gusts: NA
Location:  40.72°N, 96.12°W
Report Text: KAFK 201135Z AUTO 15006KT 4SM BR OVC005 00/00 A3011 RMK AO2 T00000000
Loading
Personal Weather Stations






























Interactive Weather Map New forecast layout! Learn more

10-Day Weather Forecast

Advertisements
Track Severe Weather on mobile